sensor_id;sensor_type;location;lat;lon;timestamp;temperature;humidity
11836;DHT22;5977;51.972;7.640;2023-05-24T00:02:08;19.40;66.90
11836;DHT22;5977;51.972;7.640;2023-05-24T00:04:39;19.40;67.10
11836;DHT22;5977;51.972;7.640;2023-05-24T00:07:07;19.40;66.80
11836;DHT22;5977;51.972;7.640;2023-05-24T00:09:35;19.40;66.90
11836;DHT22;5977;51.972;7.640;2023-05-24T00:12:04;19.40;67.10
11836;DHT22;5977;51.972;7.640;2023-05-24T00:14:33;19.40;67.10
11836;DHT22;5977;51.972;7.640;2023-05-24T00:17:01;19.40;67.10
11836;DHT22;5977;51.972;7.640;2023-05-24T00:19:30;19.40;67.00
11836;DHT22;5977;51.972;7.640;2023-05-24T00:21:58;19.40;67.00
11836;DHT22;5977;51.972;7.640;2023-05-24T00:24:27;19.40;67.20
11836;DHT22;5977;51.972;7.640;2023-05-24T00:26:54;19.40;66.80
11836;DHT22;5977;51.972;7.640;2023-05-24T00:29:23;19.40;67.10
11836;DHT22;5977;51.972;7.640;2023-05-24T00:31:52;19.40;67.00
11836;DHT22;5977;51.972;7.640;2023-05-24T00:34:20;19.40;67.10
11836;DHT22;5977;51.972;7.640;2023-05-24T00:36:49;19.40;67.40
11836;DHT22;5977;51.972;7.640;2023-05-24T00:39:17;19.40;67.40
11836;DHT22;5977;51.972;7.640;2023-05-24T00:41:45;19.40;67.20
11836;DHT22;5977;51.972;7.640;2023-05-24T00:44:13;19.40;67.40
11836;DHT22;5977;51.972;7.640;2023-05-24T00:46:41;19.40;67.10
11836;DHT22;5977;51.972;7.640;2023-05-24T00:49:09;19.40;67.30
11836;DHT22;5977;51.972;7.640;2023-05-24T00:51:37;19.40;67.50
11836;DHT22;5977;51.972;7.640;2023-05-24T00:54:07;19.40;67.50
11836;DHT22;5977;51.972;7.640;2023-05-24T00:56:35;19.40;68.40
11836;DHT22;5977;51.972;7.640;2023-05-24T00:59:02;19.40;67.50
11836;DHT22;5977;51.972;7.640;2023-05-24T01:01:31;19.40;67.60
11836;DHT22;5977;51.972;7.640;2023-05-24T01:03:59;19.40;67.40
11836;DHT22;5977;51.972;7.640;2023-05-24T01:06:30;19.40;67.60
11836;DHT22;5977;51.972;7.640;2023-05-24T01:09:11;19.30;67.50
11836;DHT22;5977;51.972;7.640;2023-05-24T01:11:52;19.30;67.70
11836;DHT22;5977;51.972;7.640;2023-05-24T01:14:26;19.30;67.90
11836;DHT22;5977;51.972;7.640;2023-05-24T01:17:04;19.30;67.70
11836;DHT22;5977;51.972;7.640;2023-05-24T01:19:42;19.30;67.70
11836;DHT22;5977;51.972;7.640;2023-05-24T01:25:26;19.30;67.70
11836;DHT22;5977;51.972;7.640;2023-05-24T01:28:01;19.40;67.90
11836;DHT22;5977;51.972;7.640;2023-05-24T01:30:29;19.30;68.10
11836;DHT22;5977;51.972;7.640;2023-05-24T01:32:58;19.40;68.00
11836;DHT22;5977;51.972;7.640;2023-05-24T01:35:26;19.30;68.00
11836;DHT22;5977;51.972;7.640;2023-05-24T01:37:54;19.30;67.90
11836;DHT22;5977;51.972;7.640;2023-05-24T01:40:22;19.30;67.80
11836;DHT22;5977;51.972;7.640;2023-05-24T01:42:55;19.30;68.10
11836;DHT22;5977;51.972;7.640;2023-05-24T01:45:33;19.30;68.10
11836;DHT22;5977;51.972;7.640;2023-05-24T01:48:09;19.30;68.00
11836;DHT22;5977;51.972;7.640;2023-05-24T01:50:47;19.30;68.10
11836;DHT22;5977;51.972;7.640;2023-05-24T01:53:18;19.40;68.20
11836;DHT22;5977;51.972;7.640;2023-05-24T01:55:47;19.30;68.00
11836;DHT22;5977;51.972;7.640;2023-05-24T01:58:20;19.30;68.20
11836;DHT22;5977;51.972;7.640;2023-05-24T02:00:50;19.30;68.20
11836;DHT22;5977;51.972;7.640;2023-05-24T02:03:20;19.30;68.50
11836;DHT22;5977;51.972;7.640;2023-05-24T02:05:48;19.30;68.10
11836;DHT22;5977;51.972;7.640;2023-05-24T02:08:16;19.20;68.10
11836;DHT22;5977;51.972;7.640;2023-05-24T02:10:44;19.20;68.40
11836;DHT22;5977;51.972;7.640;2023-05-24T02:13:12;19.20;68.60
11836;DHT22;5977;51.972;7.640;2023-05-24T02:15:41;19.30;68.50
11836;DHT22;5977;51.972;7.640;2023-05-24T02:18:13;19.20;68.50
11836;DHT22;5977;51.972;7.640;2023-05-24T02:20:44;19.10;68.70
11836;DHT22;5977;51.972;7.640;2023-05-24T02:23:12;19.20;68.70
11836;DHT22;5977;51.972;7.640;2023-05-24T02:25:40;19.20;68.60
11836;DHT22;5977;51.972;7.640;2023-05-24T02:28:08;19.20;68.50
11836;DHT22;5977;51.972;7.640;2023-05-24T02:30:36;19.20;68.70
11836;DHT22;5977;51.972;7.640;2023-05-24T02:33:05;19.20;68.60
11836;DHT22;5977;51.972;7.640;2023-05-24T02:35:34;19.20;68.60
11836;DHT22;5977;51.972;7.640;2023-05-24T02:38:02;19.20;68.60
11836;DHT22;5977;51.972;7.640;2023-05-24T02:40:32;19.20;68.70
11836;DHT22;5977;51.972;7.640;2023-05-24T02:43:00;19.20;68.70
11836;DHT22;5977;51.972;7.640;2023-05-24T02:45:28;19.20;68.90
11836;DHT22;5977;51.972;7.640;2023-05-24T02:47:56;19.20;69.00
11836;DHT22;5977;51.972;7.640;2023-05-24T02:50:24;19.20;68.90
11836;DHT22;5977;51.972;7.640;2023-05-24T02:52:53;19.20;68.90
11836;DHT22;5977;51.972;7.640;2023-05-24T02:55:21;19.20;68.80
11836;DHT22;5977;51.972;7.640;2023-05-24T02:57:52;19.20;68.90
11836;DHT22;5977;51.972;7.640;2023-05-24T03:00:21;19.20;68.80
11836;DHT22;5977;51.972;7.640;2023-05-24T03:02:49;19.30;68.80
11836;DHT22;5977;51.972;7.640;2023-05-24T03:05:18;19.30;68.80
11836;DHT22;5977;51.972;7.640;2023-05-24T03:07:46;19.30;68.70
11836;DHT22;5977;51.972;7.640;2023-05-24T03:10:16;19.20;68.90
11836;DHT22;5977;51.972;7.640;2023-05-24T03:12:44;19.30;69.00
11836;DHT22;5977;51.972;7.640;2023-05-24T03:15:12;19.40;68.80
11836;DHT22;5977;51.972;7.640;2023-05-24T03:17:40;19.30;68.60
11836;DHT22;5977;51.972;7.640;2023-05-24T03:20:08;19.30;68.70
11836;DHT22;5977;51.972;7.640;2023-05-24T03:22:37;19.30;68.80
11836;DHT22;5977;51.972;7.640;2023-05-24T03:25:05;19.30;68.80
11836;DHT22;5977;51.972;7.640;2023-05-24T03:27:36;19.20;68.70
11836;DHT22;5977;51.972;7.640;2023-05-24T03:30:05;19.30;68.80
11836;DHT22;5977;51.972;7.640;2023-05-24T03:32:40;19.30;68.80
11836;DHT22;5977;51.972;7.640;2023-05-24T03:35:08;19.30;68.80
11836;DHT22;5977;51.972;7.640;2023-05-24T03:37:37;19.30;68.90
11836;DHT22;5977;51.972;7.640;2023-05-24T03:40:06;19.30;68.80
11836;DHT22;5977;51.972;7.640;2023-05-24T03:42:56;19.30;68.90
11836;DHT22;5977;51.972;7.640;2023-05-24T03:45:44;19.30;69.00
11836;DHT22;5977;51.972;7.640;2023-05-24T03:48:12;19.30;69.00
11836;DHT22;5977;51.972;7.640;2023-05-24T03:50:40;19.30;69.00
11836;DHT22;5977;51.972;7.640;2023-05-24T03:53:10;19.20;68.90
11836;DHT22;5977;51.972;7.640;2023-05-24T03:55:38;19.20;69.00
11836;DHT22;5977;51.972;7.640;2023-05-24T03:58:07;19.20;69.20
11836;DHT22;5977;51.972;7.640;2023-05-24T04:00:35;19.20;69.20
11836;DHT22;5977;51.972;7.640;2023-05-24T04:03:03;19.20;69.20
11836;DHT22;5977;51.972;7.640;2023-05-24T04:05:32;19.20;69.30
11836;DHT22;5977;51.972;7.640;2023-05-24T04:08:00;19.20;69.30
11836;DHT22;5977;51.972;7.640;2023-05-24T04:10:28;19.20;69.30
11836;DHT22;5977;51.972;7.640;2023-05-24T04:12:56;19.20;69.30
11836;DHT22;5977;51.972;7.640;2023-05-24T04:15:26;19.20;69.20
11836;DHT22;5977;51.972;7.640;2023-05-24T04:17:54;19.20;69.40
11836;DHT22;5977;51.972;7.640;2023-05-24T04:20:22;19.20;69.40
11836;DHT22;5977;51.972;7.640;2023-05-24T04:22:51;19.20;69.50
11836;DHT22;5977;51.972;7.640;2023-05-24T04:25:19;19.20;69.40
11836;DHT22;5977;51.972;7.640;2023-05-24T04:27:47;19.20;69.40
11836;DHT22;5977;51.972;7.640;2023-05-24T04:30:16;19.20;69.40
11836;DHT22;5977;51.972;7.640;2023-05-24T04:32:45;19.20;69.30
11836;DHT22;5977;51.972;7.640;2023-05-24T04:35:14;19.10;69.40
11836;DHT22;5977;51.972;7.640;2023-05-24T04:37:43;19.20;69.20
11836;DHT22;5977;51.972;7.640;2023-05-24T04:40:12;19.20;69.20
11836;DHT22;5977;51.972;7.640;2023-05-24T04:42:40;19.20;69.20
11836;DHT22;5977;51.972;7.640;2023-05-24T04:45:09;19.30;69.20
11836;DHT22;5977;51.972;7.640;2023-05-24T04:47:37;19.30;69.30
11836;DHT22;5977;51.972;7.640;2023-05-24T04:50:07;19.30;69.00
11836;DHT22;5977;51.972;7.640;2023-05-24T04:52:35;19.30;69.00
11836;DHT22;5977;51.972;7.640;2023-05-24T04:55:05;19.30;69.10
11836;DHT22;5977;51.972;7.640;2023-05-24T04:57:33;19.20;69.00
11836;DHT22;5977;51.972;7.640;2023-05-24T05:00:01;19.30;69.20
11836;DHT22;5977;51.972;7.640;2023-05-24T05:02:30;19.30;69.70
11836;DHT22;5977;51.972;7.640;2023-05-24T05:04:59;19.30;69.30
11836;DHT22;5977;51.972;7.640;2023-05-24T05:07:28;19.30;69.20
11836;DHT22;5977;51.972;7.640;2023-05-24T05:09:56;19.30;69.30
11836;DHT22;5977;51.972;7.640;2023-05-24T05:12:24;19.40;69.40
11836;DHT22;5977;51.972;7.640;2023-05-24T05:14:52;19.40;69.10
11836;DHT22;5977;51.972;7.640;2023-05-24T05:17:20;19.40;68.80
11836;DHT22;5977;51.972;7.640;2023-05-24T05:19:48;19.40;68.90
11836;DHT22;5977;51.972;7.640;2023-05-24T05:22:16;19.40;68.70
11836;DHT22;5977;51.972;7.640;2023-05-24T05:24:45;19.40;68.80
11836;DHT22;5977;51.972;7.640;2023-05-24T05:27:13;19.40;69.00
11836;DHT22;5977;51.972;7.640;2023-05-24T05:29:41;19.40;68.90
11836;DHT22;5977;51.972;7.640;2023-05-24T05:32:09;19.40;69.00
11836;DHT22;5977;51.972;7.640;2023-05-24T05:34:37;19.40;69.10
11836;DHT22;5977;51.972;7.640;2023-05-24T05:37:04;19.40;69.20
11836;DHT22;5977;51.972;7.640;2023-05-24T05:39:32;19.40;68.80
11836;DHT22;5977;51.972;7.640;2023-05-24T05:42:02;19.40;69.60
11836;DHT22;5977;51.972;7.640;2023-05-24T05:44:29;19.50;68.80
11836;DHT22;5977;51.972;7.640;2023-05-24T05:46:57;19.50;68.80
11836;DHT22;5977;51.972;7.640;2023-05-24T05:49:25;19.60;68.80
11836;DHT22;5977;51.972;7.640;2023-05-24T05:51:53;19.50;68.50
11836;DHT22;5977;51.972;7.640;2023-05-24T05:54:21;19.60;68.80
11836;DHT22;5977;51.972;7.640;2023-05-24T05:56:49;19.60;68.50
11836;DHT22;5977;51.972;7.640;2023-05-24T05:59:19;19.60;68.40
11836;DHT22;5977;51.972;7.640;2023-05-24T06:01:47;19.60;68.70
11836;DHT22;5977;51.972;7.640;2023-05-24T06:04:15;19.40;66.20
11836;DHT22;5977;51.972;7.640;2023-05-24T06:06:43;18.80;67.00
11836;DHT22;5977;51.972;7.640;2023-05-24T06:09:15;18.50;68.00
11836;DHT22;5977;51.972;7.640;2023-05-24T06:11:43;18.40;68.60
11836;DHT22;5977;51.972;7.640;2023-05-24T06:14:11;18.30;69.20
11836;DHT22;5977;51.972;7.640;2023-05-24T06:16:45;18.30;69.60
11836;DHT22;5977;51.972;7.640;2023-05-24T06:19:13;18.20;69.60
11836;DHT22;5977;51.972;7.640;2023-05-24T06:21:42;18.20;69.40
11836;DHT22;5977;51.972;7.640;2023-05-24T06:24:13;18.30;69.60
11836;DHT22;5977;51.972;7.640;2023-05-24T06:26:43;18.30;69.10
11836;DHT22;5977;51.972;7.640;2023-05-24T06:29:11;18.30;68.90
11836;DHT22;5977;51.972;7.640;2023-05-24T06:31:39;18.30;69.30
11836;DHT22;5977;51.972;7.640;2023-05-24T06:34:10;18.30;67.70
11836;DHT22;5977;51.972;7.640;2023-05-24T06:36:38;18.30;68.60
11836;DHT22;5977;51.972;7.640;2023-05-24T06:39:09;18.40;68.90
11836;DHT22;5977;51.972;7.640;2023-05-24T06:41:37;18.30;69.20
11836;DHT22;5977;51.972;7.640;2023-05-24T06:44:05;18.20;68.60
11836;DHT22;5977;51.972;7.640;2023-05-24T06:46:33;18.30;67.70
11836;DHT22;5977;51.972;7.640;2023-05-24T06:49:01;18.50;68.10
11836;DHT22;5977;51.972;7.640;2023-05-24T06:51:31;18.30;67.70
11836;DHT22;5977;51.972;7.640;2023-05-24T06:54:00;18.40;67.30
11836;DHT22;5977;51.972;7.640;2023-05-24T06:56:28;18.50;67.00
11836;DHT22;5977;51.972;7.640;2023-05-24T06:58:56;18.30;66.40
11836;DHT22;5977;51.972;7.640;2023-05-24T07:01:23;18.40;67.30
11836;DHT22;5977;51.972;7.640;2023-05-24T07:03:51;18.40;67.30
11836;DHT22;5977;51.972;7.640;2023-05-24T07:06:19;18.40;67.40
11836;DHT22;5977;51.972;7.640;2023-05-24T07:08:49;18.40;67.80
11836;DHT22;5977;51.972;7.640;2023-05-24T07:11:17;18.30;67.80
11836;DHT22;5977;51.972;7.640;2023-05-24T07:13:45;18.40;67.80
11836;DHT22;5977;51.972;7.640;2023-05-24T07:16:13;18.30;67.10
11836;DHT22;5977;51.972;7.640;2023-05-24T07:18:41;18.50;67.60
11836;DHT22;5977;51.972;7.640;2023-05-24T07:21:09;18.40;67.10
11836;DHT22;5977;51.972;7.640;2023-05-24T07:23:37;18.30;68.00
11836;DHT22;5977;51.972;7.640;2023-05-24T07:26:06;18.40;67.60
11836;DHT22;5977;51.972;7.640;2023-05-24T07:28:34;18.40;68.50
11836;DHT22;5977;51.972;7.640;2023-05-24T07:31:03;18.70;66.60
11836;DHT22;5977;51.972;7.640;2023-05-24T07:33:35;18.50;66.30
11836;DHT22;5977;51.972;7.640;2023-05-24T07:36:04;18.50;67.10
11836;DHT22;5977;51.972;7.640;2023-05-24T07:38:32;18.60;67.00
11836;DHT22;5977;51.972;7.640;2023-05-24T07:41:01;18.90;65.70
11836;DHT22;5977;51.972;7.640;2023-05-24T07:43:31;18.90;66.00
11836;DHT22;5977;51.972;7.640;2023-05-24T07:45:59;18.70;65.40
11836;DHT22;5977;51.972;7.640;2023-05-24T07:48:27;18.80;66.00
11836;DHT22;5977;51.972;7.640;2023-05-24T07:50:55;18.80;66.60
11836;DHT22;5977;51.972;7.640;2023-05-24T07:53:23;19.10;66.20
11836;DHT22;5977;51.972;7.640;2023-05-24T07:55:51;19.00;64.70
11836;DHT22;5977;51.972;7.640;2023-05-24T07:58:19;18.90;65.10
11836;DHT22;5977;51.972;7.640;2023-05-24T08:00:48;18.70;65.20
11836;DHT22;5977;51.972;7.640;2023-05-24T08:03:16;18.80;66.20
11836;DHT22;5977;51.972;7.640;2023-05-24T08:05:44;18.70;65.70
11836;DHT22;5977;51.972;7.640;2023-05-24T08:08:12;18.70;65.80
11836;DHT22;5977;51.972;7.640;2023-05-24T08:10:41;18.70;65.60
11836;DHT22;5977;51.972;7.640;2023-05-24T08:13:09;18.80;65.80
11836;DHT22;5977;51.972;7.640;2023-05-24T08:15:37;18.90;65.80
11836;DHT22;5977;51.972;7.640;2023-05-24T08:18:06;18.70;65.40
11836;DHT22;5977;51.972;7.640;2023-05-24T08:20:35;18.70;65.50
11836;DHT22;5977;51.972;7.640;2023-05-24T08:23:03;18.70;65.30
11836;DHT22;5977;51.972;7.640;2023-05-24T08:25:31;18.70;66.20
11836;DHT22;5977;51.972;7.640;2023-05-24T08:27:59;18.90;65.80
11836;DHT22;5977;51.972;7.640;2023-05-24T08:30:27;18.80;65.80
11836;DHT22;5977;51.972;7.640;2023-05-24T08:32:56;18.80;65.50
11836;DHT22;5977;51.972;7.640;2023-05-24T08:39:19;18.80;65.80
11836;DHT22;5977;51.972;7.640;2023-05-24T08:41:47;18.80;65.30
11836;DHT22;5977;51.972;7.640;2023-05-24T08:44:38;18.70;65.40
11836;DHT22;5977;51.972;7.640;2023-05-24T08:47:08;18.90;64.80
11836;DHT22;5977;51.972;7.640;2023-05-24T08:49:36;18.80;64.70
11836;DHT22;5977;51.972;7.640;2023-05-24T08:52:05;19.10;64.20
11836;DHT22;5977;51.972;7.640;2023-05-24T08:54:36;19.00;64.00
11836;DHT22;5977;51.972;7.640;2023-05-24T08:57:04;19.20;64.40
11836;DHT22;5977;51.972;7.640;2023-05-24T08:59:33;19.10;63.90
11836;DHT22;5977;51.972;7.640;2023-05-24T09:02:02;19.00;63.80
11836;DHT22;5977;51.972;7.640;2023-05-24T09:04:32;19.10;64.60
11836;DHT22;5977;51.972;7.640;2023-05-24T09:07:00;19.00;63.80
11836;DHT22;5977;51.972;7.640;2023-05-24T09:09:28;18.80;63.90
11836;DHT22;5977;51.972;7.640;2023-05-24T09:12:01;18.80;64.20
11836;DHT22;5977;51.972;7.640;2023-05-24T09:14:31;18.90;65.10
11836;DHT22;5977;51.972;7.640;2023-05-24T09:16:59;19.10;63.60
11836;DHT22;5977;51.972;7.640;2023-05-24T09:19:27;19.00;63.70
11836;DHT22;5977;51.972;7.640;2023-05-24T09:21:56;18.80;65.00
11836;DHT22;5977;51.972;7.640;2023-05-24T09:24:24;18.80;64.60
11836;DHT22;5977;51.972;7.640;2023-05-24T09:26:52;18.60;63.80
11836;DHT22;5977;51.972;7.640;2023-05-24T09:29:22;18.50;64.40
11836;DHT22;5977;51.972;7.640;2023-05-24T09:31:54;18.50;64.90
11836;DHT22;5977;51.972;7.640;2023-05-24T09:34:23;18.60;64.80
11836;DHT22;5977;51.972;7.640;2023-05-24T09:36:51;18.70;65.10
11836;DHT22;5977;51.972;7.640;2023-05-24T09:39:20;18.80;64.60
11836;DHT22;5977;51.972;7.640;2023-05-24T09:41:51;19.10;63.70
11836;DHT22;5977;51.972;7.640;2023-05-24T09:44:25;19.20;63.70
11836;DHT22;5977;51.972;7.640;2023-05-24T09:47:00;19.20;62.90
11836;DHT22;5977;51.972;7.640;2023-05-24T09:49:30;19.00;63.00
11836;DHT22;5977;51.972;7.640;2023-05-24T09:51:58;19.00;63.00
11836;DHT22;5977;51.972;7.640;2023-05-24T09:54:26;19.00;63.40
11836;DHT22;5977;51.972;7.640;2023-05-24T09:56:54;19.00;63.40
11836;DHT22;5977;51.972;7.640;2023-05-24T09:59:24;19.00;63.30
11836;DHT22;5977;51.972;7.640;2023-05-24T10:01:56;19.00;62.70
11836;DHT22;5977;51.972;7.640;2023-05-24T10:04:35;18.80;62.20
11836;DHT22;5977;51.972;7.640;2023-05-24T10:07:04;18.80;64.20
11836;DHT22;5977;51.972;7.640;2023-05-24T10:09:34;19.10;65.00
11836;DHT22;5977;51.972;7.640;2023-05-24T10:12:04;18.90;62.50
11836;DHT22;5977;51.972;7.640;2023-05-24T10:14:35;19.10;62.30
11836;DHT22;5977;51.972;7.640;2023-05-24T10:17:04;19.10;62.90
11836;DHT22;5977;51.972;7.640;2023-05-24T10:19:32;19.10;63.30
11836;DHT22;5977;51.972;7.640;2023-05-24T10:22:06;19.20;62.90
11836;DHT22;5977;51.972;7.640;2023-05-24T10:24:37;19.20;62.30
11836;DHT22;5977;51.972;7.640;2023-05-24T10:27:08;19.40;62.60
11836;DHT22;5977;51.972;7.640;2023-05-24T10:29:49;19.50;62.60
11836;DHT22;5977;51.972;7.640;2023-05-24T10:32:20;19.40;60.50
11836;DHT22;5977;51.972;7.640;2023-05-24T10:34:50;19.40;61.90
11836;DHT22;5977;51.972;7.640;2023-05-24T10:37:20;19.30;61.30
11836;DHT22;5977;51.972;7.640;2023-05-24T10:39:48;19.20;61.70
11836;DHT22;5977;51.972;7.640;2023-05-24T10:42:16;19.10;62.00
11836;DHT22;5977;51.972;7.640;2023-05-24T10:44:45;18.90;62.20
11836;DHT22;5977;51.972;7.640;2023-05-24T10:47:14;18.70;62.40
11836;DHT22;5977;51.972;7.640;2023-05-24T10:49:49;18.60;62.40
11836;DHT22;5977;51.972;7.640;2023-05-24T10:52:18;18.60;63.40
11836;DHT22;5977;51.972;7.640;2023-05-24T10:55:02;18.60;63.10
11836;DHT22;5977;51.972;7.640;2023-05-24T10:57:31;18.50;63.20
11836;DHT22;5977;51.972;7.640;2023-05-24T11:03:07;18.70;64.20
11836;DHT22;5977;51.972;7.640;2023-05-24T11:05:49;19.00;64.00
11836;DHT22;5977;51.972;7.640;2023-05-24T11:08:28;19.00;64.10
11836;DHT22;5977;51.972;7.640;2023-05-24T11:11:09;18.90;63.80
11836;DHT22;5977;51.972;7.640;2023-05-24T11:13:55;19.10;63.30
11836;DHT22;5977;51.972;7.640;2023-05-24T11:16:33;18.80;63.50
11836;DHT22;5977;51.972;7.640;2023-05-24T11:19:13;18.70;63.50
11836;DHT22;5977;51.972;7.640;2023-05-24T11:21:44;18.80;65.00
11836;DHT22;5977;51.972;7.640;2023-05-24T11:24:12;18.80;64.40
11836;DHT22;5977;51.972;7.640;2023-05-24T11:26:40;18.60;63.00
11836;DHT22;5977;51.972;7.640;2023-05-24T11:29:08;19.00;64.60
11836;DHT22;5977;51.972;7.640;2023-05-24T11:31:36;19.20;63.60
11836;DHT22;5977;51.972;7.640;2023-05-24T11:34:09;19.20;62.90
11836;DHT22;5977;51.972;7.640;2023-05-24T11:36:38;19.30;62.70
11836;DHT22;5977;51.972;7.640;2023-05-24T11:39:07;19.30;63.40
11836;DHT22;5977;51.972;7.640;2023-05-24T11:41:37;19.30;62.60
11836;DHT22;5977;51.972;7.640;2023-05-24T11:44:09;19.40;63.70
11836;DHT22;5977;51.972;7.640;2023-05-24T11:46:38;19.20;62.80
11836;DHT22;5977;51.972;7.640;2023-05-24T11:49:11;19.20;63.00
11836;DHT22;5977;51.972;7.640;2023-05-24T11:51:41;19.30;63.10
11836;DHT22;5977;51.972;7.640;2023-05-24T11:54:09;19.30;64.00
11836;DHT22;5977;51.972;7.640;2023-05-24T11:56:38;19.10;63.60
11836;DHT22;5977;51.972;7.640;2023-05-24T11:59:13;19.10;63.60
11836;DHT22;5977;51.972;7.640;2023-05-24T12:01:42;18.90;63.80
11836;DHT22;5977;51.972;7.640;2023-05-24T12:04:10;18.90;63.30
11836;DHT22;5977;51.972;7.640;2023-05-24T12:06:41;19.00;63.80
11836;DHT22;5977;51.972;7.640;2023-05-24T12:09:12;18.90;64.60
11836;DHT22;5977;51.972;7.640;2023-05-24T12:11:42;19.00;64.90
11836;DHT22;5977;51.972;7.640;2023-05-24T12:14:11;19.00;64.30
11836;DHT22;5977;51.972;7.640;2023-05-24T12:16:41;19.00;64.80
11836;DHT22;5977;51.972;7.640;2023-05-24T12:19:15;19.10;64.80
11836;DHT22;5977;51.972;7.640;2023-05-24T12:22:00;19.00;63.90
11836;DHT22;5977;51.972;7.640;2023-05-24T12:24:30;18.90;64.20
11836;DHT22;5977;51.972;7.640;2023-05-24T12:27:00;18.80;64.50
11836;DHT22;5977;51.972;7.640;2023-05-24T12:29:33;18.90;65.10
11836;DHT22;5977;51.972;7.640;2023-05-24T12:32:01;18.90;64.70
11836;DHT22;5977;51.972;7.640;2023-05-24T12:34:29;18.80;64.50
11836;DHT22;5977;51.972;7.640;2023-05-24T12:36:59;18.90;65.00
11836;DHT22;5977;51.972;7.640;2023-05-24T12:39:29;19.10;64.60
11836;DHT22;5977;51.972;7.640;2023-05-24T12:42:00;18.90;64.20
11836;DHT22;5977;51.972;7.640;2023-05-24T12:44:29;19.10;65.00
11836;DHT22;5977;51.972;7.640;2023-05-24T12:47:00;19.20;65.10
11836;DHT22;5977;51.972;7.640;2023-05-24T12:49:30;19.10;64.30
11836;DHT22;5977;51.972;7.640;2023-05-24T12:52:00;19.10;64.90
11836;DHT22;5977;51.972;7.640;2023-05-24T12:54:28;19.10;64.40
11836;DHT22;5977;51.972;7.640;2023-05-24T12:56:56;19.20;64.90
11836;DHT22;5977;51.972;7.640;2023-05-24T12:59:28;19.30;63.60
11836;DHT22;5977;51.972;7.640;2023-05-24T13:01:56;19.50;65.10
11836;DHT22;5977;51.972;7.640;2023-05-24T13:04:24;19.70;63.00
11836;DHT22;5977;51.972;7.640;2023-05-24T13:06:53;19.60;62.60
11836;DHT22;5977;51.972;7.640;2023-05-24T13:09:23;19.60;62.70
11836;DHT22;5977;51.972;7.640;2023-05-24T13:11:52;19.50;62.70
11836;DHT22;5977;51.972;7.640;2023-05-24T13:14:20;19.50;64.20
11836;DHT22;5977;51.972;7.640;2023-05-24T13:16:48;19.40;62.40
11836;DHT22;5977;51.972;7.640;2023-05-24T13:19:17;19.50;63.10
11836;DHT22;5977;51.972;7.640;2023-05-24T13:21:45;19.50;61.50
11836;DHT22;5977;51.972;7.640;2023-05-24T13:24:13;19.30;63.40
11836;DHT22;5977;51.972;7.640;2023-05-24T13:26:44;19.30;63.50
11836;DHT22;5977;51.972;7.640;2023-05-24T13:29:12;19.40;62.90
11836;DHT22;5977;51.972;7.640;2023-05-24T13:31:43;19.10;63.20
11836;DHT22;5977;51.972;7.640;2023-05-24T13:34:11;19.20;63.70
11836;DHT22;5977;51.972;7.640;2023-05-24T13:36:39;19.40;64.00
11836;DHT22;5977;51.972;7.640;2023-05-24T13:39:07;19.40;63.80
11836;DHT22;5977;51.972;7.640;2023-05-24T13:41:43;19.50;63.50
11836;DHT22;5977;51.972;7.640;2023-05-24T13:44:12;19.50;64.30
11836;DHT22;5977;51.972;7.640;2023-05-24T13:46:40;19.50;63.60
11836;DHT22;5977;51.972;7.640;2023-05-24T13:49:09;19.40;64.20
11836;DHT22;5977;51.972;7.640;2023-05-24T13:51:38;19.50;63.70
11836;DHT22;5977;51.972;7.640;2023-05-24T13:54:06;19.60;63.70
11836;DHT22;5977;51.972;7.640;2023-05-24T13:56:34;19.60;62.40
11836;DHT22;5977;51.972;7.640;2023-05-24T13:59:05;19.60;62.70
11836;DHT22;5977;51.972;7.640;2023-05-24T14:01:34;19.60;63.20
11836;DHT22;5977;51.972;7.640;2023-05-24T14:04:04;19.80;63.30
11836;DHT22;5977;51.972;7.640;2023-05-24T14:06:33;19.90;62.50
11836;DHT22;5977;51.972;7.640;2023-05-24T14:09:03;19.60;62.00
11836;DHT22;5977;51.972;7.640;2023-05-24T14:11:34;19.60;63.60
11836;DHT22;5977;51.972;7.640;2023-05-24T14:14:03;19.60;62.70
11836;DHT22;5977;51.972;7.640;2023-05-24T14:16:34;19.70;62.40
11836;DHT22;5977;51.972;7.640;2023-05-24T14:19:03;19.60;61.90
11836;DHT22;5977;51.972;7.640;2023-05-24T14:21:31;19.60;62.80
11836;DHT22;5977;51.972;7.640;2023-05-24T14:23:59;19.80;62.90
11836;DHT22;5977;51.972;7.640;2023-05-24T14:26:26;19.70;61.50
11836;DHT22;5977;51.972;7.640;2023-05-24T14:28:54;19.70;62.40
11836;DHT22;5977;51.972;7.640;2023-05-24T14:31:24;19.80;62.00
11836;DHT22;5977;51.972;7.640;2023-05-24T14:33:52;19.80;62.40
11836;DHT22;5977;51.972;7.640;2023-05-24T14:36:20;19.70;61.90
11836;DHT22;5977;51.972;7.640;2023-05-24T14:38:48;19.70;62.50
11836;DHT22;5977;51.972;7.640;2023-05-24T14:41:15;19.70;62.10
11836;DHT22;5977;51.972;7.640;2023-05-24T14:43:43;19.80;62.50
11836;DHT22;5977;51.972;7.640;2023-05-24T14:46:11;19.60;62.40
11836;DHT22;5977;51.972;7.640;2023-05-24T14:48:41;19.70;62.10
11836;DHT22;5977;51.972;7.640;2023-05-24T14:51:09;19.80;62.60
11836;DHT22;5977;51.972;7.640;2023-05-24T14:53:36;19.70;61.80
11836;DHT22;5977;51.972;7.640;2023-05-24T14:56:05;19.70;62.70
11836;DHT22;5977;51.972;7.640;2023-05-24T14:58:34;19.60;62.80
11836;DHT22;5977;51.972;7.640;2023-05-24T15:01:02;19.80;64.80
11836;DHT22;5977;51.972;7.640;2023-05-24T15:03:30;19.80;62.30
11836;DHT22;5977;51.972;7.640;2023-05-24T15:06:00;19.70;61.20
11836;DHT22;5977;51.972;7.640;2023-05-24T15:08:28;19.70;62.90
11836;DHT22;5977;51.972;7.640;2023-05-24T15:10:56;19.70;62.40
11836;DHT22;5977;51.972;7.640;2023-05-24T15:13:25;19.70;62.70
11836;DHT22;5977;51.972;7.640;2023-05-24T15:15:52;19.60;63.50
11836;DHT22;5977;51.972;7.640;2023-05-24T15:18:22;19.80;62.80
11836;DHT22;5977;51.972;7.640;2023-05-24T15:20:53;19.70;63.00
11836;DHT22;5977;51.972;7.640;2023-05-24T15:23:23;19.70;61.90
11836;DHT22;5977;51.972;7.640;2023-05-24T15:25:51;19.60;62.90
11836;DHT22;5977;51.972;7.640;2023-05-24T15:28:19;19.60;62.40
11836;DHT22;5977;51.972;7.640;2023-05-24T15:30:49;19.50;62.40
11836;DHT22;5977;51.972;7.640;2023-05-24T15:33:17;19.70;62.90
11836;DHT22;5977;51.972;7.640;2023-05-24T15:35:45;19.60;63.70
11836;DHT22;5977;51.972;7.640;2023-05-24T15:38:13;19.80;63.90
11836;DHT22;5977;51.972;7.640;2023-05-24T15:40:44;19.90;64.20
11836;DHT22;5977;51.972;7.640;2023-05-24T15:43:12;19.90;62.80
11836;DHT22;5977;51.972;7.640;2023-05-24T15:45:42;19.80;63.10
11836;DHT22;5977;51.972;7.640;2023-05-24T15:48:10;19.90;65.20
11836;DHT22;5977;51.972;7.640;2023-05-24T15:50:38;20.00;64.60
11836;DHT22;5977;51.972;7.640;2023-05-24T15:53:26;19.90;63.60
11836;DHT22;5977;51.972;7.640;2023-05-24T15:55:55;19.80;63.60
11836;DHT22;5977;51.972;7.640;2023-05-24T15:58:24;19.90;63.40
11836;DHT22;5977;51.972;7.640;2023-05-24T16:00:52;19.80;64.00
11836;DHT22;5977;51.972;7.640;2023-05-24T16:03:20;19.70;62.80
11836;DHT22;5977;51.972;7.640;2023-05-24T16:05:48;19.70;64.10
11836;DHT22;5977;51.972;7.640;2023-05-24T16:08:16;19.70;63.20
11836;DHT22;5977;51.972;7.640;2023-05-24T16:10:44;19.70;64.70